createdAt,value
2018-04-25T00:03:53.041Z,13.75
2018-04-25T00:08:44.785Z,13.73
2018-04-25T00:13:35.779Z,13.66
2018-04-25T00:18:26.783Z,13.61
2018-04-25T00:23:17.859Z,13.55
2018-04-25T00:28:09.029Z,13.54
2018-04-25T00:33:00.043Z,13.57
2018-04-25T00:37:51.044Z,13.56
2018-04-25T00:42:42.085Z,13.47
2018-04-25T00:47:33.131Z,13.47
2018-04-25T00:52:24.185Z,13.42
2018-04-25T00:57:15.907Z,13.43
2018-04-25T01:02:07.778Z,13.42
2018-04-25T01:06:58.816Z,13.46
2018-04-25T01:11:49.893Z,13.50
2018-04-25T01:16:44.812Z,13.48
2018-04-25T01:21:36.531Z,13.55
2018-04-25T01:26:27.530Z,13.64
2018-04-25T01:31:30.499Z,13.66
2018-04-25T01:36:21.481Z,13.72
2018-04-25T01:41:13.336Z,13.68
2018-04-25T01:46:08.960Z,13.67
2018-04-25T01:50:59.847Z,13.67
2018-04-25T01:56:09.490Z,13.77
2018-04-25T02:01:19.197Z,13.79
2018-04-25T02:06:10.189Z,13.79
2018-04-25T02:11:01.205Z,13.75
2018-04-25T02:15:52.217Z,13.72
2018-04-25T02:20:43.199Z,13.79
2018-04-25T02:25:34.941Z,13.85
2018-04-25T02:30:26.691Z,13.90
2018-04-25T02:35:18.429Z,13.93
2018-04-25T02:40:09.532Z,13.93
2018-04-25T02:45:01.279Z,13.92
2018-04-25T02:49:53.017Z,13.91
2018-04-25T02:54:45.497Z,13.92
2018-04-25T02:59:36.536Z,13.94
2018-04-25T03:04:27.550Z,13.98
2018-04-25T03:09:18.552Z,13.98
2018-04-25T03:14:10.304Z,13.93
2018-04-25T03:19:01.317Z,13.90
2018-04-25T03:23:53.089Z,13.87
2018-04-25T03:28:44.320Z,13.84
2018-04-25T03:33:35.317Z,13.84
2018-04-25T03:38:26.316Z,13.84
2018-04-25T03:43:18.061Z,13.83
2018-04-25T03:48:09.809Z,13.84
2018-04-25T03:53:01.555Z,13.82
2018-04-25T03:57:52.556Z,13.84
2018-04-25T04:02:44.463Z,13.87
2018-04-25T04:07:35.511Z,13.86
2018-04-25T04:12:26.512Z,13.82
2018-04-25T04:17:17.575Z,13.83
2018-04-25T04:22:09.436Z,13.85
2018-04-25T04:27:00.448Z,13.81
2018-04-25T04:31:52.218Z,13.78
2018-04-25T04:36:43.219Z,13.79
2018-04-25T04:41:34.231Z,13.79
2018-04-25T04:46:25.992Z,13.81
2018-04-25T04:51:16.997Z,13.79
2018-04-25T04:56:08.739Z,13.78
2018-04-25T05:01:00.500Z,13.78
2018-04-25T05:05:51.487Z,13.79
2018-04-25T05:10:42.540Z,13.81
2018-04-25T05:15:33.950Z,13.82
2018-04-25T05:20:25.021Z,13.82
2018-04-25T05:25:16.044Z,13.84
2018-04-25T05:30:07.076Z,13.86
2018-04-25T05:34:58.209Z,13.87
2018-04-25T05:39:49.521Z,13.86
2018-04-25T05:44:40.559Z,13.85
2018-04-25T05:49:31.563Z,13.83
2018-04-25T05:54:22.581Z,13.85
2018-04-25T05:59:13.618Z,13.89
2018-04-25T06:04:04.680Z,13.91
2018-04-25T06:08:55.732Z,13.96
2018-04-25T06:13:46.751Z,14.00
2018-04-25T06:18:38.680Z,14.02
2018-04-25T06:23:29.734Z,14.06
2018-04-25T06:28:20.782Z,14.07
2018-04-25T06:33:11.832Z,14.07
2018-04-25T06:38:02.839Z,14.08
2018-04-25T06:42:53.955Z,14.09
2018-04-25T06:47:44.971Z,14.10
2018-04-25T06:52:36.043Z,14.13
2018-04-25T06:57:27.797Z,14.16
2018-04-25T07:02:19.626Z,14.23
2018-04-25T07:07:11.393Z,14.22
2018-04-25T07:12:02.396Z,14.27
2018-04-25T07:16:54.201Z,14.31
2018-04-25T07:21:45.221Z,14.36
2018-04-25T07:26:36.226Z,14.45
2018-04-25T07:31:27.265Z,14.51
2018-04-25T07:36:18.338Z,14.57
2018-04-25T07:41:24.403Z,14.62
2018-04-25T07:46:16.288Z,14.67
2018-04-25T07:51:07.359Z,14.76
2018-04-25T07:55:58.400Z,14.83
2018-04-25T08:00:50.181Z,14.87
2018-04-25T08:05:41.191Z,14.98
2018-04-25T08:10:32.352Z,15.20
2018-04-25T08:15:42.313Z,15.44
2018-04-25T08:26:15.478Z,15.66
2018-04-25T08:31:06.486Z,15.72
2018-04-25T08:35:57.511Z,15.81
2018-04-25T08:40:48.696Z,15.86
2018-04-25T08:45:39.754Z,15.95
2018-04-25T08:50:30.768Z,16.03
2018-04-25T08:55:21.776Z,16.22
2018-04-25T09:00:12.801Z,16.51
2018-04-25T09:05:03.856Z,16.68
2018-04-25T09:09:54.892Z,16.96
2018-04-25T09:14:46.669Z,17.16
2018-04-25T09:19:37.680Z,17.53
2018-04-25T09:24:29.487Z,18.06
2018-04-25T09:29:20.485Z,18.09
2018-04-25T09:34:11.505Z,17.95
2018-04-25T09:39:02.517Z,17.89
2018-04-25T09:43:53.548Z,18.17
2018-04-25T09:48:44.972Z,18.76
2018-04-25T09:53:36.128Z,19.32
2018-04-25T09:58:27.157Z,19.81
2018-04-25T10:03:22.229Z,19.58
2018-04-25T10:08:13.245Z,19.41
2018-04-25T10:13:04.308Z,19.38
2018-04-25T10:17:55.309Z,19.77
2018-04-25T10:22:46.349Z,19.86
2018-04-25T10:27:37.363Z,19.62
2018-04-25T10:32:28.392Z,19.23
2018-04-25T10:37:19.614Z,18.98
2018-04-25T10:42:10.657Z,18.81
2018-04-25T10:47:01.683Z,18.73
2018-04-25T10:51:52.708Z,18.63
2018-04-25T10:56:43.847Z,18.57
2018-04-25T11:01:34.885Z,18.45
2018-04-25T11:06:26.629Z,17.73
2018-04-25T11:11:18.375Z,16.90
2018-04-25T11:16:10.169Z,16.46
2018-04-25T11:21:01.181Z,16.08
2018-04-25T11:25:52.186Z,15.84
2018-04-25T11:30:43.192Z,15.38
2018-04-25T11:35:34.360Z,15.49
2018-04-25T11:40:25.362Z,15.96
2018-04-25T11:45:16.418Z,16.66
2018-04-25T11:50:07.430Z,17.13
2018-04-25T11:54:58.460Z,17.55
2018-04-25T11:59:49.621Z,17.90
2018-04-25T12:04:41.383Z,18.14
2018-04-25T12:09:32.436Z,18.47
2018-04-25T12:14:23.472Z,18.96
2018-04-25T12:19:14.557Z,19.03
2018-04-25T12:24:05.584Z,18.73
2018-04-25T12:28:56.626Z,18.36
2018-04-25T12:33:47.649Z,17.97
2018-04-25T12:38:38.763Z,18.34
2018-04-25T12:43:29.882Z,18.84
2018-04-25T12:48:21.108Z,19.09
2018-04-25T12:53:12.153Z,19.33
2018-04-25T12:58:03.165Z,19.63
2018-04-25T13:02:54.239Z,19.48
2018-04-25T13:07:46.098Z,19.52
2018-04-25T13:12:37.869Z,19.89
2018-04-25T13:17:29.876Z,20.10
2018-04-25T13:22:21.657Z,20.14
2018-04-25T13:27:12.678Z,20.07
2018-04-25T13:32:03.704Z,19.81
2018-04-25T13:36:54.848Z,19.92
2018-04-25T13:41:45.872Z,19.86
2018-04-25T13:46:36.935Z,19.94
2018-04-25T13:51:28.730Z,19.96
2018-04-25T13:56:19.855Z,19.74
2018-04-25T14:01:10.882Z,19.68
2018-04-25T14:06:01.983Z,19.49
2018-04-25T14:10:53.804Z,19.99
2018-04-25T14:15:44.869Z,20.16
2018-04-25T14:20:35.905Z,19.83
2018-04-25T14:25:26.961Z,19.46
2018-04-25T14:30:19.003Z,19.51
2018-04-25T14:35:10.108Z,19.47
2018-04-25T14:40:01.121Z,19.56
2018-04-25T14:44:52.205Z,19.50
2018-04-25T14:49:43.225Z,19.43
2018-04-25T14:54:34.315Z,19.05
2018-04-25T14:59:26.066Z,18.69
2018-04-25T15:04:17.861Z,18.56
2018-04-25T15:09:09.157Z,18.71
2018-04-25T15:14:00.199Z,18.79
2018-04-25T15:18:51.209Z,18.65
2018-04-25T15:23:42.287Z,18.34
2018-04-25T15:28:34.102Z,18.23
2018-04-25T15:33:25.218Z,18.47
2018-04-25T15:38:16.220Z,18.31
2018-04-25T15:43:07.243Z,18.18
2018-04-25T15:47:58.261Z,18.16
2018-04-25T15:52:49.282Z,18.08
2018-04-25T15:57:40.371Z,17.92
2018-04-25T16:02:32.161Z,17.71
2018-04-25T16:07:23.243Z,17.48
2018-04-25T16:12:15.165Z,17.50
2018-04-25T16:17:06.896Z,17.35
2018-04-25T16:21:57.882Z,17.31
2018-04-25T16:26:48.900Z,17.20
2018-04-25T16:31:40.128Z,16.99
2018-04-25T16:36:31.141Z,16.75
2018-04-25T16:41:22.152Z,16.57
2018-04-25T16:46:13.166Z,16.50
2018-04-25T16:51:04.181Z,16.49
2018-04-25T16:55:56.118Z,16.50
2018-04-25T17:00:47.884Z,16.44
2018-04-25T17:05:38.888Z,16.38
2018-04-25T17:10:30.649Z,16.42
2018-04-25T17:15:21.643Z,16.33
2018-04-25T17:20:13.405Z,16.25
2018-04-25T17:25:04.463Z,16.18
2018-04-25T17:29:56.293Z,16.25
2018-04-25T17:34:47.384Z,16.26
2018-04-25T17:39:39.179Z,16.22
2018-04-25T17:44:30.219Z,16.17
2018-04-25T17:49:21.223Z,16.04
2018-04-25T17:54:12.258Z,15.90
2018-04-25T17:59:03.344Z,15.85
2018-04-25T18:03:54.381Z,15.85
2018-04-25T18:08:45.484Z,15.81
2018-04-25T18:13:36.501Z,15.75
2018-04-25T18:18:27.511Z,15.68
2018-04-25T18:23:26.104Z,15.62
2018-04-25T18:28:17.859Z,15.57
2018-04-25T18:33:08.921Z,15.49
2018-04-25T18:38:00.065Z,15.44
2018-04-25T18:42:51.095Z,15.37
2018-04-25T18:47:42.223Z,15.31
2018-04-25T18:52:33.984Z,15.20
2018-04-25T18:57:25.787Z,15.07
2018-04-25T19:02:16.794Z,14.94
2018-04-25T19:07:07.817Z,14.92
2018-04-25T19:11:58.832Z,14.83
2018-04-25T19:16:50.079Z,14.60
2018-04-25T19:21:41.099Z,14.50
2018-04-25T19:26:32.192Z,14.41
2018-04-25T19:31:23.210Z,14.32
2018-04-25T19:36:14.287Z,14.27
2018-04-25T19:41:06.763Z,14.23
2018-04-25T19:45:58.511Z,14.03
2018-04-25T19:50:50.373Z,13.74
2018-04-25T19:55:41.456Z,13.56
2018-04-25T20:00:32.464Z,13.61
2018-04-25T20:05:23.464Z,13.54
2018-04-25T20:10:14.565Z,13.51
2018-04-25T20:15:05.613Z,13.46
2018-04-25T20:19:56.686Z,13.25
2018-04-25T20:24:47.737Z,13.05
2018-04-25T20:29:38.771Z,12.99
2018-04-25T20:34:29.874Z,12.89
2018-04-25T20:39:21.012Z,12.60
2018-04-25T20:44:12.035Z,12.56
2018-04-25T20:49:03.035Z,12.67
2018-04-25T20:53:54.952Z,12.77
2018-04-25T20:58:46.030Z,12.82
2018-04-25T21:03:37.061Z,12.85
2018-04-25T21:08:28.083Z,12.66
2018-04-25T21:13:19.133Z,12.60
2018-04-25T21:18:10.248Z,12.48
2018-04-25T21:23:01.321Z,12.45
2018-04-25T21:27:53.062Z,12.21
2018-04-25T21:32:44.872Z,11.93
2018-04-25T21:37:35.909Z,11.79
2018-04-25T21:42:27.687Z,11.82
2018-04-25T21:47:18.711Z,11.78
2018-04-25T21:52:09.821Z,11.76
2018-04-25T21:57:00.796Z,11.70
2018-04-25T22:01:51.795Z,11.54
2018-04-25T22:06:42.789Z,11.42
2018-04-25T22:11:33.846Z,11.32
2018-04-25T22:16:24.952Z,11.23
2018-04-25T22:21:15.996Z,11.18
2018-04-25T22:26:07.002Z,11.13
2018-04-25T22:30:58.024Z,11.07
2018-04-25T22:35:49.048Z,11.07
2018-04-25T22:40:40.145Z,11.18
2018-04-25T22:45:31.915Z,11.25
2018-04-25T22:50:22.919Z,11.36
2018-04-25T22:55:13.949Z,11.38
2018-04-25T23:00:04.987Z,11.33
2018-04-25T23:04:56.088Z,11.31
2018-04-25T23:09:47.126Z,11.20
2018-04-25T23:14:38.134Z,11.17
2018-04-25T23:19:29.149Z,11.25
2018-04-25T23:24:20.927Z,11.21
2018-04-25T23:29:12.754Z,11.11
2018-04-25T23:34:03.756Z,11.05
2018-04-25T23:38:54.766Z,10.99
2018-04-25T23:43:46.612Z,10.95
2018-04-25T23:48:38.361Z,10.96
2018-04-25T23:53:29.359Z,11.00
2018-04-25T23:58:20.376Z,10.98
